createdAt,value
2023-07-25T00:01:46.175Z,100221.56
2023-07-25T00:04:13.902Z,100213.69
2023-07-25T00:06:41.653Z,100221.88
2023-07-25T00:09:09.447Z,100205.94
2023-07-25T00:11:37.129Z,100219.69
2023-07-25T00:14:06.207Z,100222.50
2023-07-25T00:16:33.931Z,100217.63
2023-07-25T00:19:01.684Z,100221.94
2023-07-25T00:21:29.633Z,100231.88
2023-07-25T00:23:57.659Z,100228.97
2023-07-25T00:26:25.336Z,100222.16
2023-07-25T00:28:53.124Z,100227.75
2023-07-25T00:31:22.213Z,100224.84
2023-07-25T00:33:49.918Z,100227.38
2023-07-25T00:36:17.574Z,100240.13
2023-07-25T00:38:45.223Z,100225.81
2023-07-25T00:41:12.938Z,100242.72
2023-07-25T00:43:40.627Z,100230.94
2023-07-25T00:46:08.439Z,100247.78
2023-07-25T00:48:37.695Z,100241.06
2023-07-25T00:51:06.452Z,100247.69
2023-07-25T00:53:34.211Z,100252.38
2023-07-25T00:56:02.570Z,100253.13
2023-07-25T00:58:30.513Z,100239.91
2023-07-25T01:01:03.739Z,100252.56
2023-07-25T01:03:32.210Z,100243.88
2023-07-25T01:06:04.046Z,100260.25
2023-07-25T01:08:31.855Z,100254.03
2023-07-25T01:10:59.530Z,100249.06
2023-07-25T01:13:27.248Z,100249.75
2023-07-25T01:15:55.604Z,100251.06
2023-07-25T01:18:23.442Z,100258.50
2023-07-25T01:20:51.550Z,100257.22
2023-07-25T01:23:21.765Z,100253.31
2023-07-25T01:25:50.782Z,100246.31
2023-07-25T01:28:18.504Z,100247.50
2023-07-25T01:30:46.323Z,100260.25
2023-07-25T01:33:14.015Z,100255.19
2023-07-25T01:35:41.776Z,100252.56
2023-07-25T01:38:09.585Z,100273.97
2023-07-25T01:40:40.515Z,100275.28
2023-07-25T01:43:10.022Z,100264.69
2023-07-25T01:45:38.025Z,100251.47
2023-07-25T01:48:06.060Z,100268.81
2023-07-25T01:50:33.743Z,100265.28
2023-07-25T01:53:01.428Z,100271.19
2023-07-25T01:55:29.162Z,100275.59
2023-07-25T01:57:56.924Z,100270.03
2023-07-25T02:00:25.940Z,100286.78
2023-07-25T02:02:53.676Z,100268.63
2023-07-25T02:05:21.343Z,100259.44
2023-07-25T02:07:49.034Z,100268.19
2023-07-25T02:10:16.972Z,100287.13
2023-07-25T02:12:44.636Z,100279.78
2023-07-25T02:15:12.377Z,100282.31
2023-07-25T02:17:41.457Z,100271.22
2023-07-25T02:20:09.971Z,100267.44
2023-07-25T02:22:37.624Z,100277.31
2023-07-25T02:25:06.283Z,100295.19
2023-07-25T02:27:34.273Z,100286.84
2023-07-25T02:30:02.001Z,100283.91
2023-07-25T02:32:29.668Z,100283.22
2023-07-25T02:34:58.695Z,100281.03
2023-07-25T02:37:26.463Z,100289.22
2023-07-25T02:39:54.142Z,100300.28
2023-07-25T02:42:21.858Z,100295.22
2023-07-25T02:44:49.540Z,100307.97
2023-07-25T02:47:17.206Z,100299.44
2023-07-25T02:49:44.928Z,100293.34
2023-07-25T02:52:13.927Z,100285.81
2023-07-25T02:54:41.735Z,100284.56
2023-07-25T02:57:09.491Z,100300.78
2023-07-25T02:59:37.204Z,100294.25
2023-07-25T03:02:05.298Z,100291.19
2023-07-25T03:04:33.019Z,100299.53
2023-07-25T03:07:00.739Z,100283.09
2023-07-25T03:09:29.963Z,100288.06
2023-07-25T03:11:57.689Z,100284.72
2023-07-25T03:14:25.362Z,100290.75
2023-07-25T03:16:53.154Z,100290.19
2023-07-25T03:19:20.890Z,100289.06
2023-07-25T03:21:48.561Z,100298.38
2023-07-25T03:24:16.255Z,100290.47
2023-07-25T03:26:45.375Z,100299.50
2023-07-25T03:29:13.087Z,100299.81
2023-07-25T03:31:40.781Z,100299.94
2023-07-25T03:34:08.896Z,100298.66
2023-07-25T03:36:36.595Z,100299.94
2023-07-25T03:39:04.263Z,100294.41
2023-07-25T03:41:32.247Z,100302.22
2023-07-25T03:44:01.567Z,100310.00
2023-07-25T03:46:29.372Z,100312.84
2023-07-25T03:48:59.206Z,100322.69
2023-07-25T03:51:27.168Z,100320.09
2023-07-25T03:53:55.678Z,100322.56
2023-07-25T03:56:23.453Z,100327.13
2023-07-25T03:58:51.213Z,100318.50
2023-07-25T04:01:20.203Z,100308.88
2023-07-25T04:03:48.036Z,100314.44
2023-07-25T04:06:16.059Z,100312.84
2023-07-25T04:08:43.708Z,100306.84
2023-07-25T04:11:11.429Z,100290.25
2023-07-25T04:13:39.149Z,100297.59
2023-07-25T04:16:07.516Z,100309.66
2023-07-25T04:18:36.605Z,100329.78
2023-07-25T04:21:04.272Z,100315.94
2023-07-25T04:23:32.014Z,100296.03
2023-07-25T04:25:59.829Z,100316.44
2023-07-25T04:28:29.276Z,100306.16
2023-07-25T04:30:59.187Z,100309.44
2023-07-25T04:33:26.958Z,100294.88
2023-07-25T04:35:55.964Z,100292.34
2023-07-25T04:38:23.766Z,100287.53
2023-07-25T04:40:51.465Z,100294.16
2023-07-25T04:43:19.132Z,100305.09
2023-07-25T04:45:53.063Z,100292.72
2023-07-25T04:48:22.566Z,100305.91
2023-07-25T04:50:50.212Z,100304.88
2023-07-25T04:53:19.352Z,100313.50
2023-07-25T04:55:47.043Z,100311.16
2023-07-25T04:58:14.863Z,100321.38
2023-07-25T05:00:42.542Z,100327.75
2023-07-25T05:03:10.269Z,100319.25
2023-07-25T05:05:38.143Z,100321.72
2023-07-25T05:08:05.900Z,100315.63
2023-07-25T05:10:36.371Z,100313.84
2023-07-25T05:13:04.108Z,100307.13
2023-07-25T05:15:31.859Z,100304.53
2023-07-25T05:17:59.558Z,100306.00
2023-07-25T05:20:27.358Z,100287.84
2023-07-25T05:22:55.044Z,100232.22
2023-07-25T05:25:22.714Z,100265.97
2023-07-25T05:27:51.802Z,100280.91
2023-07-25T05:30:19.620Z,100292.19
2023-07-25T05:32:47.661Z,100268.16
2023-07-25T05:35:15.357Z,100286.03
2023-07-25T05:37:43.011Z,100276.47
2023-07-25T05:40:10.890Z,100259.06
2023-07-25T05:42:38.584Z,100275.41
2023-07-25T05:45:08.753Z,100288.03
2023-07-25T05:47:36.410Z,100292.06
2023-07-25T05:50:05.149Z,100296.97
2023-07-25T05:52:32.925Z,100298.53
2023-07-25T05:55:00.727Z,100312.56
2023-07-25T05:57:28.461Z,100307.44
2023-07-25T05:59:56.210Z,100300.53
2023-07-25T06:02:25.262Z,100289.97
2023-07-25T06:04:52.918Z,100279.63
2023-07-25T06:07:23.428Z,100269.53
2023-07-25T06:09:51.470Z,100275.88
2023-07-25T06:12:19.433Z,100275.78
2023-07-25T06:14:47.453Z,100256.75
2023-07-25T06:17:15.171Z,100274.34
2023-07-25T06:19:45.790Z,100275.78
2023-07-25T06:22:15.515Z,100274.94
2023-07-25T06:24:43.751Z,100282.31
2023-07-25T06:27:11.523Z,100264.25
2023-07-25T06:29:39.170Z,100267.19
2023-07-25T06:32:07.931Z,100276.44
2023-07-25T06:34:35.681Z,100278.91
2023-07-25T06:37:04.838Z,100294.84
2023-07-25T06:39:32.536Z,100290.69
2023-07-25T06:42:00.268Z,100295.66
2023-07-25T06:44:27.956Z,100283.63
2023-07-25T06:46:55.728Z,100299.75
2023-07-25T06:49:23.534Z,100298.59
2023-07-25T06:51:51.166Z,100308.28
2023-07-25T06:54:20.329Z,100298.13
2023-07-25T06:56:47.968Z,100297.78
2023-07-25T06:59:15.670Z,100288.50
2023-07-25T07:01:43.336Z,100302.94
2023-07-25T07:04:11.456Z,100313.28
2023-07-25T07:06:39.486Z,100318.00
2023-07-25T07:09:07.205Z,100322.00
2023-07-25T07:11:36.304Z,100331.66
2023-07-25T07:14:04.063Z,100348.72
2023-07-25T07:16:31.998Z,100346.19
2023-07-25T07:18:59.763Z,100357.72
2023-07-25T07:21:27.465Z,100355.13
2023-07-25T07:23:55.221Z,100375.94
2023-07-25T07:26:22.924Z,100368.41
2023-07-25T07:28:52.251Z,100365.00
2023-07-25T07:31:24.458Z,100371.34
2023-07-25T07:33:52.214Z,100372.72
2023-07-25T07:36:19.909Z,100392.63
2023-07-25T07:38:50.734Z,100395.47
2023-07-25T07:41:18.442Z,100391.69
2023-07-25T07:43:46.205Z,100398.75
2023-07-25T07:46:15.256Z,100399.31
2023-07-25T07:48:44.422Z,100408.06
2023-07-25T07:51:12.279Z,100408.13
2023-07-25T07:53:40.467Z,100394.41
2023-07-25T07:56:09.314Z,100390.69
2023-07-25T07:58:37.086Z,100401.84
2023-07-25T08:01:05.083Z,100417.63
2023-07-25T08:03:34.151Z,100405.06
2023-07-25T08:06:01.972Z,100425.66
2023-07-25T08:08:29.633Z,100415.00
2023-07-25T08:10:57.295Z,100417.78
2023-07-25T08:13:24.998Z,100402.00
2023-07-25T08:15:52.708Z,100397.19
2023-07-25T08:18:21.315Z,100384.41
2023-07-25T08:20:56.518Z,100382.81
2023-07-25T08:23:24.288Z,100393.16
2023-07-25T08:25:52.262Z,100383.28
2023-07-25T08:28:20.026Z,100379.69
2023-07-25T08:30:48.244Z,100371.97
2023-07-25T08:33:20.164Z,100381.28
2023-07-25T08:35:51.777Z,100375.22
2023-07-25T08:38:19.558Z,100371.00
2023-07-25T08:40:48.712Z,100356.31
2023-07-25T08:43:19.860Z,100360.09
2023-07-25T08:45:50.168Z,100357.44
2023-07-25T08:48:21.511Z,100366.09
2023-07-25T08:50:53.820Z,100368.59
2023-07-25T08:53:25.232Z,100376.81
2023-07-25T08:55:53.646Z,100360.63
2023-07-25T08:58:21.817Z,100370.25
2023-07-25T09:00:50.847Z,100377.31
2023-07-25T09:03:19.041Z,100381.34
2023-07-25T09:05:47.810Z,100375.81
2023-07-25T09:08:16.815Z,100393.97
2023-07-25T09:10:46.306Z,100399.50
2023-07-25T09:13:14.107Z,100404.19
2023-07-25T09:15:41.806Z,100399.69
2023-07-25T09:18:09.513Z,100400.94
2023-07-25T09:20:38.502Z,100398.56
2023-07-25T09:23:06.213Z,100415.13
2023-07-25T09:25:35.346Z,100364.78
2023-07-25T09:28:03.168Z,100409.13
2023-07-25T09:30:31.000Z,100418.47
2023-07-25T09:32:58.705Z,100438.53
2023-07-25T09:35:27.296Z,100438.53
2023-07-25T09:37:56.557Z,100447.94
2023-07-25T09:40:24.514Z,100458.72
2023-07-25T09:42:53.716Z,100451.78
2023-07-25T09:45:21.840Z,100424.34
2023-07-25T09:47:54.556Z,100437.78
2023-07-25T09:50:27.917Z,100426.63
2023-07-25T09:52:55.784Z,100438.38
2023-07-25T09:55:23.705Z,100428.25
2023-07-25T09:57:53.617Z,100415.63
2023-07-25T10:00:21.465Z,100407.72
2023-07-25T10:02:51.222Z,100411.31
2023-07-25T10:05:19.556Z,100429.06
2023-07-25T10:07:50.396Z,100422.50
2023-07-25T10:10:19.682Z,100410.00
2023-07-25T10:12:47.681Z,100391.03
2023-07-25T10:15:17.142Z,100388.00
2023-07-25T10:17:45.315Z,100374.00
2023-07-25T10:20:21.876Z,100385.00
2023-07-25T10:22:49.985Z,100381.06
2023-07-25T10:25:22.512Z,100371.56
2023-07-25T10:27:55.373Z,100378.69
2023-07-25T10:30:25.637Z,100395.38
2023-07-25T10:32:55.290Z,100373.25
2023-07-25T10:35:43.386Z,100398.88
2023-07-25T10:38:12.675Z,100408.22
2023-07-25T10:40:56.643Z,100403.47
2023-07-25T10:43:29.469Z,100422.78
2023-07-25T10:46:03.327Z,100440.44
2023-07-25T10:48:45.818Z,100450.03
2023-07-25T10:51:16.512Z,100451.41
2023-07-25T10:54:08.623Z,100467.63
2023-07-25T10:56:36.686Z,100476.06
2023-07-25T10:59:09.880Z,100472.78
2023-07-25T11:01:48.030Z,100465.47
2023-07-25T11:04:27.836Z,100469.56
2023-07-25T11:06:57.516Z,100455.81
2023-07-25T11:09:26.617Z,100460.22
2023-07-25T11:11:56.146Z,100454.69
2023-07-25T11:14:24.458Z,100441.66
2023-07-25T11:16:58.258Z,100431.47
2023-07-25T11:19:30.025Z,100445.56
2023-07-25T11:21:58.538Z,100445.09
2023-07-25T11:24:26.865Z,100434.94
2023-07-25T11:26:54.960Z,100454.72
2023-07-25T11:29:23.723Z,100452.38
2023-07-25T11:31:52.974Z,100437.69
2023-07-25T11:34:22.867Z,100431.47
2023-07-25T11:36:50.720Z,100409.34
2023-07-25T11:39:20.168Z,100400.16
2023-07-25T11:41:48.190Z,100384.81
2023-07-25T11:44:19.748Z,100403.69
2023-07-25T11:46:51.210Z,100389.34
2023-07-25T11:49:40.436Z,100402.94
2023-07-25T11:52:11.584Z,100393.88
2023-07-25T11:54:42.054Z,100394.22
2023-07-25T11:57:12.044Z,100402.38
2023-07-25T11:59:43.518Z,100402.38
2023-07-25T12:02:13.569Z,100412.84
2023-07-25T12:04:46.587Z,100410.44
2023-07-25T12:07:15.405Z,100431.34
2023-07-25T12:09:51.417Z,100429.59
2023-07-25T12:12:19.783Z,100433.78
2023-07-25T12:14:58.609Z,100433.66
2023-07-25T12:17:44.199Z,100425.81
2023-07-25T12:20:18.135Z,100396.28
2023-07-25T12:22:46.207Z,100415.47
2023-07-25T12:25:18.665Z,100410.44
2023-07-25T12:27:50.486Z,100420.50
2023-07-25T12:30:21.559Z,100418.72
2023-07-25T12:32:49.376Z,100415.00
2023-07-25T12:35:18.640Z,100409.00
2023-07-25T12:37:46.301Z,100398.31
2023-07-25T12:40:14.154Z,100397.09
2023-07-25T12:42:42.027Z,100408.69
2023-07-25T12:45:11.550Z,100409.25
2023-07-25T12:47:39.994Z,100403.03
2023-07-25T12:50:10.296Z,100395.47
2023-07-25T12:52:40.752Z,100398.81
2023-07-25T12:55:09.513Z,100410.16
2023-07-25T12:57:38.715Z,100401.59
2023-07-25T13:00:08.675Z,100396.91
2023-07-25T13:02:38.043Z,100408.50
2023-07-25T13:05:07.512Z,100410.50
2023-07-25T13:07:36.292Z,100399.25
2023-07-25T13:10:07.634Z,100396.19
2023-07-25T13:12:35.961Z,100381.69
2023-07-25T13:15:06.687Z,100384.16
2023-07-25T13:17:36.244Z,100401.84
2023-07-25T13:20:08.291Z,100404.03
2023-07-25T13:22:38.672Z,100410.25
2023-07-25T13:25:08.628Z,100400.13
2023-07-25T13:27:36.480Z,100408.34
2023-07-25T13:30:05.408Z,100384.19
2023-07-25T13:32:33.738Z,100406.97
2023-07-25T13:35:01.820Z,100413.13
2023-07-25T13:37:29.728Z,100406.25
2023-07-25T13:39:57.688Z,100421.06
2023-07-25T13:42:30.098Z,100433.06
2023-07-25T13:44:58.013Z,100421.59
2023-07-25T13:47:26.539Z,100431.06
2023-07-25T13:49:56.658Z,100421.34
2023-07-25T13:52:24.625Z,100435.78
2023-07-25T13:54:52.601Z,100433.13
2023-07-25T13:57:25.614Z,100441.81
2023-07-25T14:00:00.420Z,100434.53
2023-07-25T14:02:28.879Z,100432.22
2023-07-25T14:04:56.751Z,100429.25
2023-07-25T14:07:24.623Z,100437.72
2023-07-25T14:09:52.624Z,100436.00
2023-07-25T14:12:20.505Z,100411.53
2023-07-25T14:14:48.666Z,100439.03
2023-07-25T14:17:19.486Z,100449.59
2023-07-25T14:19:47.589Z,100439.56
2023-07-25T14:22:15.594Z,100440.69
2023-07-25T14:24:43.826Z,100455.38
2023-07-25T14:27:12.022Z,100454.66
2023-07-25T14:29:39.963Z,100426.75
2023-07-25T14:32:08.958Z,100434.94
2023-07-25T14:34:38.382Z,100454.25
2023-07-25T14:37:06.998Z,100453.72
2023-07-25T14:39:35.279Z,100476.47
2023-07-25T14:42:03.210Z,100467.50
2023-07-25T14:44:31.364Z,100461.97
2023-07-25T14:46:59.893Z,100468.91
2023-07-25T14:49:28.014Z,100437.59
2023-07-25T14:51:57.500Z,100461.97
2023-07-25T14:54:38.789Z,100474.16
2023-07-25T14:57:07.289Z,100478.28
2023-07-25T14:59:35.344Z,100463.09
2023-07-25T15:02:03.212Z,100469.69
2023-07-25T15:04:31.074Z,100471.50
2023-07-25T15:07:00.072Z,100463.66
2023-07-25T15:09:27.768Z,100469.47
2023-07-25T15:11:55.521Z,100453.78
2023-07-25T15:14:25.026Z,100455.31
2023-07-25T15:16:56.701Z,100476.28
2023-07-25T15:19:26.519Z,100450.25
2023-07-25T15:21:55.826Z,100489.44
2023-07-25T15:24:24.889Z,100477.84
2023-07-25T15:26:53.360Z,100496.66
2023-07-25T15:29:21.106Z,100487.56
2023-07-25T15:31:48.772Z,100485.28
2023-07-25T15:34:16.485Z,100480.69
2023-07-25T15:36:45.558Z,100488.41
2023-07-25T15:39:14.378Z,100506.81
2023-07-25T15:41:43.383Z,100498.72
2023-07-25T15:44:11.678Z,100494.84
2023-07-25T15:46:39.340Z,100503.53
2023-07-25T15:49:07.036Z,100476.75
2023-07-25T15:51:34.955Z,100490.09
2023-07-25T15:54:03.023Z,100488.47
2023-07-25T15:56:30.675Z,100481.84
2023-07-25T15:58:59.728Z,100495.84
2023-07-25T16:01:27.445Z,100493.34
2023-07-25T16:03:55.191Z,100501.78
2023-07-25T16:06:22.846Z,100484.16
2023-07-25T16:08:50.525Z,100476.44
2023-07-25T16:11:18.240Z,100496.63
2023-07-25T16:13:46.377Z,100490.50
2023-07-25T16:16:15.578Z,100495.53
2023-07-25T16:18:43.332Z,100491.56
2023-07-25T16:21:11.820Z,100485.56
2023-07-25T16:23:39.596Z,100485.53
2023-07-25T16:26:07.938Z,100484.31
2023-07-25T16:28:37.260Z,100476.09
2023-07-25T16:31:30.189Z,100486.16
2023-07-25T16:33:54.475Z,100510.50
2023-07-25T16:36:22.142Z,100488.56
2023-07-25T16:38:49.825Z,100505.28
2023-07-25T16:41:18.702Z,100491.44
2023-07-25T16:43:46.556Z,100505.94
2023-07-25T16:46:14.260Z,100518.19
2023-07-25T16:48:41.970Z,100505.44
2023-07-25T16:51:11.472Z,100506.28
2023-07-25T16:53:39.259Z,100512.91
2023-07-25T16:56:07.099Z,100503.84
2023-07-25T16:58:35.803Z,100506.94
2023-07-25T17:01:04.538Z,100514.38
2023-07-25T17:03:32.557Z,100514.19
2023-07-25T17:06:02.680Z,100519.19
2023-07-25T17:08:33.484Z,100526.63
2023-07-25T17:11:05.395Z,100516.94
2023-07-25T17:13:33.273Z,100535.22
2023-07-25T17:16:01.219Z,100528.44
2023-07-25T17:18:30.308Z,100545.53
2023-07-25T17:20:58.306Z,100531.50
2023-07-25T17:23:26.228Z,100549.81
2023-07-25T17:25:55.262Z,100549.59
2023-07-25T17:28:22.951Z,100540.31
2023-07-25T17:30:51.145Z,100546.75
2023-07-25T17:33:18.868Z,100549.19
2023-07-25T17:35:46.573Z,100554.19
2023-07-25T17:38:14.833Z,100540.09
2023-07-25T17:40:43.063Z,100551.38
2023-07-25T17:43:12.172Z,100564.34
2023-07-25T17:45:39.870Z,100555.84
2023-07-25T17:48:09.747Z,100564.56
2023-07-25T17:50:37.490Z,100564.13
2023-07-25T17:53:05.771Z,100549.97
2023-07-25T17:55:33.592Z,100563.66
2023-07-25T17:58:01.270Z,100578.88
2023-07-25T18:00:30.380Z,100560.31
2023-07-25T18:02:58.207Z,100575.97
2023-07-25T18:05:25.945Z,100584.13
2023-07-25T18:07:53.584Z,100591.84
2023-07-25T18:10:21.325Z,100586.00
2023-07-25T18:12:49.017Z,100595.06
2023-07-25T18:15:17.027Z,100593.06
2023-07-25T18:17:46.319Z,100584.94
2023-07-25T18:20:14.128Z,100590.72
2023-07-25T18:22:41.849Z,100600.00
2023-07-25T18:25:10.610Z,100608.78
2023-07-25T18:27:39.781Z,100583.81
2023-07-25T18:30:09.611Z,100588.03
2023-07-25T18:32:37.388Z,100604.69
2023-07-25T18:35:07.006Z,100593.25
2023-07-25T18:37:34.778Z,100609.41
2023-07-25T18:40:02.465Z,100615.97
2023-07-25T18:42:30.161Z,100618.22
2023-07-25T18:44:57.829Z,100601.94
2023-07-25T18:47:34.493Z,100608.34
2023-07-25T18:50:03.256Z,100629.19
2023-07-25T18:52:32.274Z,100620.28
2023-07-25T18:54:59.955Z,100625.34
2023-07-25T18:57:27.726Z,100618.00
2023-07-25T18:59:56.934Z,100632.13
2023-07-25T19:02:24.885Z,100636.19
2023-07-25T19:04:52.674Z,100642.75
2023-07-25T19:07:20.398Z,100652.59
2023-07-25T19:09:49.459Z,100632.00
2023-07-25T19:12:17.354Z,100639.94
2023-07-25T19:14:45.030Z,100648.47
2023-07-25T19:17:12.763Z,100651.19
2023-07-25T19:19:41.244Z,100649.81
2023-07-25T19:22:09.731Z,100641.03
2023-07-25T19:24:37.533Z,100658.16
2023-07-25T19:27:07.153Z,100656.13
2023-07-25T19:29:34.829Z,100659.88
2023-07-25T19:32:03.277Z,100654.25
2023-07-25T19:34:31.035Z,100645.56
2023-07-25T19:36:58.717Z,100649.03
2023-07-25T19:39:26.350Z,100647.47
2023-07-25T19:41:54.348Z,100665.88
2023-07-25T19:44:23.461Z,100655.34
2023-07-25T19:46:53.108Z,100673.34
2023-07-25T19:49:21.195Z,100655.84
2023-07-25T19:51:49.280Z,100657.94
2023-07-25T19:54:16.960Z,100672.78
2023-07-25T19:56:44.741Z,100673.66
2023-07-25T19:59:12.675Z,100672.31
2023-07-25T20:01:41.741Z,100661.56
2023-07-25T20:04:09.507Z,100617.47
2023-07-25T20:06:38.145Z,100656.91
2023-07-25T20:09:05.858Z,100679.34
2023-07-25T20:11:33.598Z,100685.34
2023-07-25T20:14:03.041Z,100672.84
2023-07-25T20:16:31.408Z,100672.91
2023-07-25T20:19:00.715Z,100685.91
2023-07-25T20:21:28.428Z,100671.75
2023-07-25T20:23:56.288Z,100676.63
2023-07-25T20:26:24.079Z,100657.16
2023-07-25T20:28:51.862Z,100674.03
2023-07-25T20:31:20.140Z,100674.31
2023-07-25T20:33:47.821Z,100673.53
2023-07-25T20:36:16.901Z,100689.50
2023-07-25T20:38:47.546Z,100676.00
2023-07-25T20:41:15.281Z,100693.16
2023-07-25T20:43:43.494Z,100696.31
2023-07-25T20:46:11.213Z,100697.28
2023-07-25T20:48:38.892Z,100691.59
2023-07-25T20:51:06.614Z,100693.44
2023-07-25T20:53:40.661Z,100707.91
2023-07-25T20:56:09.070Z,100694.16
2023-07-25T20:58:36.873Z,100703.28
2023-07-25T21:01:04.605Z,100705.00
2023-07-25T21:03:32.536Z,100707.63
2023-07-25T21:06:01.325Z,100706.28
2023-07-25T21:08:28.990Z,100705.53
2023-07-25T21:10:58.523Z,100712.03
2023-07-25T21:13:26.215Z,100716.25
2023-07-25T21:15:54.199Z,100713.47
2023-07-25T21:18:22.044Z,100704.69
2023-07-25T21:20:49.953Z,100710.03
2023-07-25T21:23:18.072Z,100718.50
2023-07-25T21:25:45.761Z,100729.00
2023-07-25T21:28:14.810Z,100728.53
2023-07-25T21:30:42.770Z,100732.97
2023-07-25T21:33:11.120Z,100730.91
2023-07-25T21:35:38.893Z,100735.41
2023-07-25T21:38:06.540Z,100744.47
2023-07-25T21:40:34.254Z,100733.78
2023-07-25T21:43:01.925Z,100744.25
2023-07-25T21:45:30.936Z,100733.50
2023-07-25T21:47:58.740Z,100738.91
2023-07-25T21:50:26.469Z,100745.91
2023-07-25T21:52:54.173Z,100743.41
2023-07-25T21:55:21.909Z,100746.13
2023-07-25T21:57:49.580Z,100739.03
2023-07-25T22:00:17.580Z,100733.41
2023-07-25T22:02:46.675Z,100736.50
2023-07-25T22:05:14.444Z,100749.81
2023-07-25T22:07:42.149Z,100744.78
2023-07-25T22:10:10.127Z,100741.81
2023-07-25T22:12:37.802Z,100744.56
2023-07-25T22:15:07.791Z,100758.19
2023-07-25T22:17:35.521Z,100735.19
2023-07-25T22:20:04.975Z,100756.44
2023-07-25T22:22:32.889Z,100743.44
2023-07-25T22:25:01.191Z,100757.13
2023-07-25T22:27:29.011Z,100763.19
2023-07-25T22:29:56.673Z,100759.50
2023-07-25T22:32:25.049Z,100755.59
2023-07-25T22:34:52.843Z,100748.19
2023-07-25T22:37:22.849Z,100763.69
2023-07-25T22:39:50.536Z,100750.88
2023-07-25T22:42:18.214Z,100760.56
2023-07-25T22:44:45.921Z,100764.47
2023-07-25T22:47:13.653Z,100752.19
2023-07-25T22:49:41.315Z,100760.28
2023-07-25T22:52:09.134Z,100756.19
2023-07-25T22:54:38.259Z,100751.00
2023-07-25T22:57:06.355Z,100756.22
2023-07-25T22:59:34.199Z,100740.56
2023-07-25T23:02:01.852Z,100754.19
2023-07-25T23:04:29.621Z,100750.69
2023-07-25T23:06:57.771Z,100754.06
2023-07-25T23:09:25.485Z,100759.34
2023-07-25T23:11:54.571Z,100754.41
2023-07-25T23:14:22.675Z,100760.25
2023-07-25T23:16:50.483Z,100759.31
2023-07-25T23:19:18.201Z,100757.84
2023-07-25T23:21:45.919Z,100743.34
2023-07-25T23:24:13.673Z,100750.88
2023-07-25T23:26:43.044Z,100746.53
2023-07-25T23:29:12.282Z,100757.63
2023-07-25T23:31:40.092Z,100753.75
2023-07-25T23:34:07.917Z,100755.78
2023-07-25T23:36:35.669Z,100754.44
2023-07-25T23:39:03.330Z,100735.03
2023-07-25T23:41:31.183Z,100748.84
2023-07-25T23:43:58.939Z,100743.72
2023-07-25T23:46:28.082Z,100758.78
2023-07-25T23:48:56.218Z,100757.47
2023-07-25T23:51:24.289Z,100757.91
2023-07-25T23:53:51.981Z,100751.03
2023-07-25T23:56:19.656Z,100746.22
2023-07-25T23:58:47.354Z,100725.56
